Nearby METAR Reports

 

KTTN - Trenton, New Jersey, USA
Distance from station: WNW 11mi, 17km
Updated: Thu, 21-Jan-2021 4:53am EST
Clear
Clear
 Wind from SW
Wind: SW 5 mph , 7 km/h
Temperature: 21°F , -6°C
Wind Chill: 14°F , -10°C
Dew Point: 16°F , -9°C
Humidity: 80%
Barometer: 29.95 inHg , 1014.2 hPa
Clouds: Clear
Visibility: 10 miles , 16 km
2021/01/21 09:53 KTTN 210953Z AUTO 22004KT 10SM CLR M06/M09 A2995 RMK AO2 SLP137 T10561094
KWRI - Wrightst/Mcguire, New Jersey, USA
Distance from station: SSE 14mi, 22km
Updated: Wed, 20-Jan-2021 1:56pm EST
NOT Current
Partly cloudy
Partly cloudy
 Wind from NW
Wind: NW 18 mph , 30 km/h, Gust: 25 mph , 41 km/h
Temperature: 39°F , 4°C
Wind Chill: 30°F , -1°C
Dew Point: 16°F , -9°C
Humidity: 39%
Barometer: 29.93 inHg , 1013.5 hPa
Clouds: Partly cloudy
Visibility: 10 miles , 16 km
Cloud details: Partly cloudy 5500 ft
2021/01/20 18:56 KWRI 201856Z 32016G22KT 10SM SCT055 04/M09 A2993 RMK AO2A PK WND 34030/35 SLP136 T00411086
 
KNEL - Lakehurst Nas, New Jersey, USA
Distance from station: SE 21mi, 34km
Updated: Thu, 21-Jan-2021 5:00am EST
Clear
Clear
 Wind from calm
Wind: Calm
Temperature: 18°F , -8°C
Dew Point: 16°F , -9°C
Humidity: 93%
Barometer: 29.95 inHg , 1014.2 hPa
Clouds: Clear
Visibility: 10 miles , 16 km
2021/01/21 10:00 KNEL 211000Z AUTO 00000KT 10SM CLR M08/M09 A2995 RMK AO2 SLP141 T10831094 FZRANO $
KPNE - Philadelphia/Ne, Pennsylvania, USA
Distance from station: WSW 22mi, 35km
Updated: Thu, 21-Jan-2021 4:54am EST
Clear
Clear
 Wind from SSW
Wind: SSW 3 mph , 6 km/h
Temperature: 25°F , -4°C
Dew Point: 14°F , -10°C
Humidity: 63%
Barometer: 29.97 inHg , 1014.9 hPa
Clouds: Clear
Visibility: 10 miles , 16 km
2021/01/21 09:54 KPNE 210954Z AUTO 20003KT 10SM CLR M04/M10 A2997 RMK AO2 SLP148 T10391100
 
KVAY - Mount Holly, New Jersey, USA
Distance from station: SSW 22mi, 35km
Updated: Thu, 21-Jan-2021 4:54am EST
Clear
Clear
 Wind from S
Wind: S 3 mph , 6 km/h
Temperature: 21°F , -6°C
Dew Point: 16°F , -9°C
Humidity: 80%
Barometer: 29.96 inHg , 1014.6 hPa
Clouds: Clear
Visibility: 10 miles , 16 km
2021/01/21 09:54 KVAY 210954Z AUTO 19003KT 10SM CLR M06/M09 A2996 RMK AO2 SLP146 T10561094
KMJX - Toms River, New Jersey, USA
Distance from station: SE 26mi, 42km
Updated: Thu, 21-Jan-2021 4:56am EST
Clear
Clear
 Wind from calm
Wind: Calm
Temperature: 12°F , -11°C
Dew Point: 9°F , -13°C
Humidity: 85%
Barometer: 29.96 inHg , 1014.6 hPa
Clouds: Clear
Visibility: 10 miles , 16 km
2021/01/21 09:56 KMJX 210956Z AUTO 00000KT 10SM CLR M11/M13 A2996 RMK AO2 SLP149 T11061128 FZRANO
 
KDYL - Doylestown, Pennsylvania, USA
Distance from station: WNW 27mi, 43km
Updated: Thu, 21-Jan-2021 4:54am EST
Clear
Clear
 Wind from calm
Wind: Calm
Temperature: 21°F , -6°C
Dew Point: 12°F , -11°C
Humidity: 68%
Barometer: 29.91 inHg , 1012.9 hPa
Clouds: Clear
Visibility: 10 miles , 16 km
2021/01/21 09:54 KDYL 210954Z AUTO 00000KT 10SM CLR M06/M11 A2991 RMK AO2 SLP138 T10611106
KBLM - Belmar/Farmdale, New Jersey, USA
Distance from station: E 28mi, 45km
Updated: Thu, 21-Jan-2021 4:56am EST
Clear
Clear
 Wind from SSE
Wind: SSE 6 mph , 9 km/h
Temperature: 21°F , -6°C
Wind Chill: 13°F , -11°C
Dew Point: 16°F , -9°C
Humidity: 80%
Barometer: 29.94 inHg , 1013.9 hPa
Clouds: Clear
Visibility: 10 miles , 16 km
2021/01/21 09:56 KBLM 210956Z AUTO 16005KT 10SM CLR M06/M09 A2994 RMK AO2 SLP140 T10561094 FZRANO
 
KSMQ - Somerville, New Jersey, USA
Distance from station: N 28mi, 45km
Updated: Thu, 21-Jan-2021 4:53am EST
Clear
Clear
 Wind from calm
Wind: Calm
Temperature: 18°F , -8°C
Dew Point: 12°F , -11°C
Humidity: 79%
Barometer: 29.93 inHg , 1013.5 hPa
Clouds: Clear
Visibility: 10 miles , 16 km
2021/01/21 09:53 KSMQ 210953Z AUTO 00000KT 10SM CLR M08/M11 A2993 RMK AO2 SLP136 I1000 T10831106
KLOM - Philly Wings F, Pennsylvania, USA
Distance from station: W 34mi, 54km
Updated: Thu, 21-Jan-2021 5:15am EST
Clear
Clear
 Wind from calm
Wind: Calm
Temperature: 21°F , -6°C
Dew Point: 14°F , -10°C
Humidity: 74%
Barometer: 29.92 inHg , 1013.2 hPa
Clouds: Clear
Visibility: 10 miles , 16 km
2021/01/21 10:15 KLOM 211015Z AUTO 00000KT 10SM CLR M06/M10 A2992 RMK AO2 T10651098
 
KLDJ - Linden, New Jersey, USA
Distance from station: NE 35mi, 56km
Updated: Thu, 21-Jan-2021 5:15am EST
Clear
Clear
 Wind from calm
Wind: Calm
Temperature: 25°F , -4°C
Dew Point: 14°F , -10°C
Humidity: 63%
Barometer: 29.94 inHg , 1013.9 hPa
Clouds: Clear
Visibility: 10 miles , 16 km
2021/01/21 10:15 KLDJ 211015Z AUTO 00000KT 10SM CLR M04/M10 A2994 RMK AO2 T10421098
KCKZ - Perkasie, Pennsylvania, USA
Distance from station: WNW 36mi, 58km
Updated: Thu, 21-Jan-2021 5:15am EST
Clear
Clear
 Wind from calm
Wind: Calm
Temperature: 16°F , -9°C
Dew Point: 14°F , -10°C
Humidity: 93%
Barometer: 29.91 inHg , 1012.9 hPa
Clouds: Clear
Visibility: 10 miles , 16 km
2021/01/21 10:15 KCKZ 211015Z AUTO 00000KT 10SM CLR M09/M10 A2991 RMK AO2
 
KPHL - Philadelphia, Pennsylvania, USA
Distance from station: SW 40mi, 64km
Updated: Thu, 21-Jan-2021 4:54am EST
Clear
Clear
 Wind from S
Wind: S 6 mph , 9 km/h
Temperature: 25°F , -4°C
Wind Chill: 18°F , -8°C
Dew Point: 14°F , -10°C
Humidity: 63%
Barometer: 29.96 inHg , 1014.6 hPa
Clouds: Clear
Visibility: 10 miles , 16 km
2021/01/21 09:54 KPHL 210954Z 19005KT 10SM CLR M04/M10 A2996 RMK AO2 SLP145 T10391100
KEWR - Newark, New Jersey, USA
Distance from station: NE 41mi, 66km
Updated: Thu, 21-Jan-2021 4:51am EST
Clear
Clear
 Wind from SW
Wind: SW 5 mph , 7 km/h
Temperature: 25°F , -4°C
Wind Chill: 19°F , -7°C
Dew Point: 12°F , -11°C
Humidity: 59%
Barometer: 29.93 inHg , 1013.5 hPa
Clouds: Clear
Visibility: 10 miles , 16 km
2021/01/21 09:51 KEWR 210951Z 23004KT 10SM CLR M04/M11 A2993 RMK AO2 SLP133 T10391106
 
KMMU - Morristown Muni, New Jersey, USA
Distance from station: NNE 41mi, 66km
Updated: Thu, 21-Jan-2021 5:15am EST
Clear
Clear
 Wind from calm
Wind: Calm
Temperature: 18°F , -8°C
Dew Point: 14°F , -10°C
Humidity: 86%
Barometer: 29.91 inHg , 1012.9 hPa
Clouds: Clear
Visibility: 10 miles , 16 km
2021/01/21 10:15 KMMU 211015Z AUTO 00000KT 10SM CLR M08/M10 A2991 RMK AO2
KUKT - Quakertown Arp, Pennsylvania, USA
Distance from station: WNW 42mi, 68km
Updated: Thu, 21-Jan-2021 5:15am EST
Clear
Clear
 Wind from calm
Wind: Calm
Temperature: 16°F , -9°C
Dew Point: 14°F , -10°C
Humidity: 93%
Barometer: 29.90 inHg , 1012.5 hPa
Clouds: Clear
Visibility: 10 miles , 16 km
2021/01/21 10:15 KUKT 211015Z AUTO 00000KT 10SM CLR M09/M10 A2990 RMK A01
 
KJRB - Manhattan/Dwntwn, New York, USA
Distance from station: NE 47mi, 75km
Updated: Thu, 21-Jan-2021 4:56am EST
Clear
Clear
 Wind from SSW
Wind: SSW 5 mph , 7 km/h
Temperature: 28°F , -2°C
Wind Chill: 22°F , -6°C
Dew Point: 16°F , -9°C
Humidity: 59%
Barometer: 29.93 inHg , 1013.5 hPa
Clouds: Clear
Visibility: 10 miles , 16 km
2021/01/21 09:56 KJRB 210956Z AUTO 21004KT 10SM CLR M02/M09 A2993 RMK AO2 SLP136 T10221089 FZRANO
KPTW - Pottstown, Pennsylvania, USA
Distance from station: W 48mi, 77km
Updated: Thu, 21-Jan-2021 4:54am EST
Clear
Clear
 Wind from calm
Wind: Calm
Temperature: 18°F , -8°C
Dew Point: 12°F , -11°C
Humidity: 79%
Barometer: 29.93 inHg , 1013.5 hPa
Clouds: Clear
Visibility: 10 miles , 16 km
2021/01/21 09:54 KPTW 210954Z AUTO 00000KT 10SM CLR M08/M11 A2993 RMK AO2 SLP136 T10831111
 
KCDW - Caldwell, New Jersey, USA
Distance from station: NNE 50mi, 80km
Updated: Thu, 21-Jan-2021 4:53am EST
Clear
Clear
 Wind from calm
Wind: Calm
Temperature: 19°F , -7°C
Dew Point: 12°F , -11°C
Humidity: 73%
Barometer: 29.92 inHg , 1013.2 hPa
Clouds: Clear
Visibility: 10 miles , 16 km
2021/01/21 09:53 KCDW 210953Z AUTO 00000KT 10SM CLR M07/M11 A2992 RMK AO2 SLP140 T10671111